createdAt,value
2018-03-15T00:02:30.650Z,16.08
2018-03-15T00:04:58.757Z,9.98
2018-03-15T00:07:27.716Z,11.48
2018-03-15T00:09:55.649Z,17.25
2018-03-15T00:12:24.346Z,20.48
2018-03-15T00:14:51.813Z,14.87
2018-03-15T00:17:19.636Z,12.32
2018-03-15T00:19:51.933Z,14.13
2018-03-15T00:22:21.336Z,13.77
2018-03-15T00:24:49.753Z,11.07
2018-03-15T00:27:17.240Z,12.15
2018-03-15T00:29:54.304Z,12.35
2018-03-15T00:32:28.540Z,16.42
2018-03-15T00:34:56.664Z,13.98
2018-03-15T00:37:24.132Z,10.15
2018-03-15T00:39:51.587Z,11.85
2018-03-15T00:42:19.753Z,14.23
2018-03-15T00:44:47.712Z,11.82
2018-03-15T00:47:16.783Z,11.95
2018-03-15T00:49:44.460Z,14.38
2018-03-15T00:52:11.910Z,8.63
2018-03-15T00:54:39.358Z,10.63
2018-03-15T00:57:08.868Z,16.55
2018-03-15T00:59:37.568Z,10.90
2018-03-15T01:02:07.359Z,16.08
2018-03-15T01:04:34.997Z,15.05
2018-03-15T01:07:02.460Z,13.27
2018-03-15T01:09:31.243Z,11.55
2018-03-15T01:11:58.677Z,13.18
2018-03-15T01:14:26.516Z,20.75
2018-03-15T01:16:53.941Z,9.35
2018-03-15T01:19:21.372Z,9.45
2018-03-15T01:21:48.796Z,14.35
2018-03-15T01:24:16.222Z,13.13
2018-03-15T01:26:43.657Z,9.50
2018-03-15T01:29:11.089Z,10.65
2018-03-15T01:31:38.906Z,11.27
2018-03-15T01:34:06.334Z,12.98
2018-03-15T01:36:33.770Z,14.80
2018-03-15T01:39:01.184Z,13.38
2018-03-15T01:41:28.621Z,11.12
2018-03-15T01:43:56.457Z,19.05
2018-03-15T01:46:23.889Z,10.90
2018-03-15T01:48:51.315Z,12.68
2018-03-15T01:51:18.758Z,11.43
2018-03-15T01:53:46.180Z,11.73
2018-03-15T01:56:13.627Z,12.40
2018-03-15T01:58:41.446Z,12.55
2018-03-15T02:01:08.888Z,14.07
2018-03-15T02:03:36.310Z,13.60
2018-03-15T02:06:04.136Z,12.90
2018-03-15T02:08:31.558Z,15.43
2018-03-15T02:10:58.991Z,10.05
2018-03-15T02:13:26.423Z,18.80
2018-03-15T02:15:53.853Z,14.27
2018-03-15T02:18:21.275Z,16.87
2018-03-15T02:20:48.704Z,12.27
2018-03-15T02:23:16.520Z,12.52
2018-03-15T02:25:43.943Z,12.18
2018-03-15T02:28:11.361Z,10.70
2018-03-15T02:30:38.798Z,12.15
2018-03-15T02:33:06.213Z,13.57
2018-03-15T02:35:33.663Z,10.90
2018-03-15T02:38:01.575Z,13.77
2018-03-15T02:40:29.006Z,12.82
2018-03-15T02:42:56.455Z,13.95
2018-03-15T02:45:23.902Z,11.12
2018-03-15T02:47:51.328Z,16.45
2018-03-15T02:50:18.769Z,13.13
2018-03-15T02:52:46.196Z,13.18
2018-03-15T02:55:13.634Z,13.20
2018-03-15T03:00:15.257Z,14.00
2018-03-15T03:02:42.692Z,15.07
2018-03-15T03:05:10.110Z,14.65
2018-03-15T03:07:37.541Z,12.00
2018-03-15T03:10:04.969Z,10.18
2018-03-15T03:12:32.407Z,17.70
2018-03-15T03:14:59.859Z,14.15
2018-03-15T03:17:27.273Z,10.55
2018-03-15T03:19:54.710Z,11.00
2018-03-15T03:22:22.128Z,10.32
2018-03-15T03:24:49.576Z,12.13
2018-03-15T03:27:17.015Z,14.15
2018-03-15T03:29:44.448Z,14.07
2018-03-15T03:32:11.876Z,15.75
2018-03-15T03:34:39.348Z,13.80
2018-03-15T03:37:06.769Z,12.90
2018-03-15T03:39:34.211Z,12.25
2018-03-15T03:42:01.652Z,11.20
2018-03-15T03:44:29.064Z,14.20
2018-03-15T03:46:56.497Z,11.75
2018-03-15T03:49:23.920Z,11.18
2018-03-15T03:51:51.366Z,15.95
2018-03-15T03:54:19.184Z,10.48
2018-03-15T03:56:46.607Z,10.68
2018-03-15T03:59:14.032Z,13.20
2018-03-15T04:01:41.468Z,13.80
2018-03-15T04:04:08.892Z,12.05
2018-03-15T04:06:36.322Z,14.75
2018-03-15T04:09:04.128Z,14.25
2018-03-15T04:11:31.571Z,13.60
2018-03-15T04:13:59.018Z,12.90
2018-03-15T04:16:26.468Z,12.93
2018-03-15T04:18:53.894Z,11.65
2018-03-15T04:21:21.324Z,13.68
2018-03-15T04:23:48.762Z,8.95
2018-03-15T04:26:16.198Z,7.78
2018-03-15T04:28:43.620Z,11.48
2018-03-15T04:31:11.449Z,15.05
2018-03-15T04:33:38.887Z,9.50
2018-03-15T04:36:06.318Z,12.68
2018-03-15T04:38:33.766Z,11.80
2018-03-15T04:41:01.238Z,12.27
2018-03-15T04:43:28.641Z,10.27
2018-03-15T04:45:56.073Z,15.13
2018-03-15T04:48:23.492Z,7.85
2018-03-15T04:50:51.335Z,12.52
2018-03-15T04:53:18.744Z,12.13
2018-03-15T04:55:46.196Z,12.88
2018-03-15T04:58:13.642Z,11.88
2018-03-15T05:00:41.081Z,14.93
2018-03-15T05:03:08.941Z,7.93
2018-03-15T05:05:36.388Z,17.58
2018-03-15T05:08:03.824Z,14.85
2018-03-15T05:10:31.256Z,11.68
2018-03-15T05:12:58.685Z,13.40
2018-03-15T05:15:26.116Z,17.17
2018-03-15T05:17:53.953Z,11.98
2018-03-15T05:20:21.382Z,13.65
2018-03-15T05:22:48.832Z,14.43
2018-03-15T05:25:16.273Z,9.90
2018-03-15T05:27:43.709Z,10.40
2018-03-15T05:30:11.157Z,10.95
2018-03-15T05:32:38.577Z,13.98
2018-03-15T05:35:06.026Z,13.50
2018-03-15T05:37:33.443Z,12.93
2018-03-15T05:40:01.261Z,12.13
2018-03-15T05:42:28.713Z,12.73
2018-03-15T05:44:56.142Z,11.12
2018-03-15T05:47:23.569Z,16.20
2018-03-15T05:49:51.031Z,10.93
2018-03-15T05:52:18.417Z,10.00
2018-03-15T05:54:45.844Z,14.75
2018-03-15T05:57:13.675Z,10.57
2018-03-15T05:59:41.098Z,17.25
2018-03-15T06:02:08.540Z,8.20
2018-03-15T06:04:35.961Z,11.43
2018-03-15T06:07:03.392Z,12.27
2018-03-15T06:09:30.825Z,10.98
2018-03-15T06:11:58.244Z,15.98
2018-03-15T06:14:26.074Z,11.85
2018-03-15T06:16:53.506Z,10.27
2018-03-15T06:19:20.928Z,11.45
2018-03-15T06:21:48.356Z,12.13
2018-03-15T06:24:15.798Z,12.40
2018-03-15T06:26:43.225Z,12.73
2018-03-15T06:29:10.641Z,9.48
2018-03-15T06:31:38.472Z,8.25
2018-03-15T06:34:05.940Z,10.57
2018-03-15T06:36:33.321Z,12.60
2018-03-15T06:39:00.740Z,10.27
2018-03-15T06:41:28.172Z,8.13
2018-03-15T06:43:55.593Z,10.68
2018-03-15T06:46:24.347Z,16.62
2018-03-15T06:48:51.757Z,9.43
2018-03-15T06:51:19.194Z,13.18
2018-03-15T06:53:47.009Z,12.82
2018-03-15T06:56:14.446Z,11.25
2018-03-15T06:58:41.872Z,12.68
2018-03-15T07:01:09.700Z,10.48
2018-03-15T07:03:37.127Z,11.68
2018-03-15T07:06:04.550Z,15.57
2018-03-15T07:08:32.372Z,13.82
2018-03-15T07:10:59.821Z,8.20
2018-03-15T07:13:27.233Z,11.82
2018-03-15T07:15:54.665Z,17.05
2018-03-15T07:18:22.085Z,15.02
2018-03-15T07:20:49.530Z,14.73
2018-03-15T07:23:16.956Z,10.93
2018-03-15T07:25:44.786Z,16.10
2018-03-15T07:28:12.208Z,8.30
2018-03-15T07:30:39.648Z,10.70
2018-03-15T07:33:07.081Z,8.63
2018-03-15T07:35:34.517Z,12.13
2018-03-15T07:38:01.944Z,12.50
2018-03-15T07:40:29.364Z,9.90
2018-03-15T07:42:56.801Z,11.45
2018-03-15T07:45:24.244Z,13.05
2018-03-15T07:47:51.679Z,16.45
2018-03-15T07:50:19.098Z,13.52
2018-03-15T07:52:46.533Z,14.85
2018-03-15T07:55:13.956Z,16.00
2018-03-15T07:57:41.380Z,11.70
2018-03-15T08:00:08.864Z,15.55
2018-03-15T08:02:36.281Z,13.82
2018-03-15T08:05:03.725Z,18.92
2018-03-15T08:07:31.552Z,12.48
2018-03-15T08:09:59.019Z,13.35
2018-03-15T08:12:26.429Z,9.15
2018-03-15T08:14:53.889Z,8.63
2018-03-15T08:17:21.303Z,10.98
2018-03-15T08:19:49.127Z,12.27
2018-03-15T08:22:16.559Z,12.40
2018-03-15T08:24:43.984Z,12.10
2018-03-15T08:27:11.815Z,13.23
2018-03-15T08:29:39.288Z,11.12
2018-03-15T08:32:06.705Z,9.85
2018-03-15T08:34:34.129Z,13.65
2018-03-15T08:37:01.572Z,16.23
2018-03-15T08:39:29.002Z,12.55
2018-03-15T08:41:56.465Z,13.25
2018-03-15T08:44:23.898Z,11.00
2018-03-15T08:46:51.336Z,12.82
2018-03-15T08:49:18.778Z,13.60
2018-03-15T08:51:46.221Z,13.85
2018-03-15T08:54:13.664Z,10.10
2018-03-15T08:56:41.108Z,11.73
2018-03-15T08:59:08.545Z,9.80
2018-03-15T09:01:37.049Z,12.27
2018-03-15T09:04:05.137Z,12.07
2018-03-15T09:06:32.561Z,12.07
2018-03-15T09:08:59.990Z,8.80
2018-03-15T09:11:27.449Z,9.93
2018-03-15T09:13:54.906Z,14.57
2018-03-15T09:16:22.374Z,11.70
2018-03-15T09:18:49.826Z,9.43
2018-03-15T09:21:17.695Z,10.88
2018-03-15T09:23:45.142Z,7.90
2018-03-15T09:26:12.601Z,13.60
2018-03-15T09:28:40.096Z,12.15
2018-03-15T09:31:07.541Z,9.45
2018-03-15T09:33:34.973Z,11.45
2018-03-15T09:36:02.433Z,10.45
2018-03-15T09:38:29.851Z,8.18
2018-03-15T09:40:57.285Z,13.20
2018-03-15T09:43:25.133Z,12.88
2018-03-15T09:45:52.600Z,10.57
2018-03-15T09:48:20.033Z,9.77
2018-03-15T09:50:47.456Z,9.93
2018-03-15T09:53:14.889Z,11.63
2018-03-15T09:55:42.741Z,11.02
2018-03-15T09:58:10.576Z,9.85
2018-03-15T10:00:38.006Z,10.40
2018-03-15T10:03:05.436Z,9.50
2018-03-15T10:05:32.852Z,8.63
2018-03-15T10:08:00.299Z,7.75
2018-03-15T10:10:27.737Z,10.07
2018-03-15T10:12:57.623Z,12.18
2018-03-15T10:15:25.056Z,7.12
2018-03-15T10:17:52.484Z,7.07
2018-03-15T10:20:19.923Z,9.02
2018-03-15T10:22:47.360Z,7.22
2018-03-15T10:25:26.389Z,9.70
2018-03-15T10:27:42.627Z,7.82
2018-03-15T10:30:10.054Z,8.70
2018-03-15T10:32:37.484Z,8.40
2018-03-15T10:35:10.624Z,8.05
2018-03-15T10:37:39.091Z,9.77
2018-03-15T10:40:06.520Z,8.20
2018-03-15T10:42:34.005Z,8.15
2018-03-15T10:45:01.426Z,7.75
2018-03-15T10:47:28.860Z,8.23
2018-03-15T10:49:56.290Z,6.15
2018-03-15T10:52:23.729Z,6.28
2018-03-15T10:54:51.158Z,5.85
2018-03-15T10:57:18.596Z,6.62
2018-03-15T10:59:46.024Z,5.68
2018-03-15T11:02:19.378Z,5.60
2018-03-15T11:04:52.380Z,5.60
2018-03-15T11:07:25.536Z,5.85
2018-03-15T11:09:52.969Z,5.25
2018-03-15T11:12:20.408Z,6.82
2018-03-15T11:14:47.845Z,7.87
2018-03-15T11:17:15.298Z,7.35
2018-03-15T11:19:42.725Z,5.72
2018-03-15T11:22:10.165Z,7.60
2018-03-15T11:24:37.594Z,9.48
2018-03-15T11:27:05.053Z,6.18
2018-03-15T11:29:32.483Z,5.90
2018-03-15T11:31:59.924Z,4.87
2018-03-15T11:34:27.381Z,8.05
2018-03-15T11:36:54.812Z,5.70
2018-03-15T11:39:23.157Z,6.45
2018-03-15T11:41:50.614Z,4.55
2018-03-15T11:44:18.051Z,7.45
2018-03-15T11:46:45.516Z,5.72
2018-03-15T11:49:12.976Z,11.10
2018-03-15T11:51:40.602Z,5.72
2018-03-15T11:54:08.429Z,6.60
2018-03-15T11:56:35.869Z,6.18
2018-03-15T11:59:03.330Z,5.03
2018-03-15T12:01:30.750Z,8.47
2018-03-15T12:03:58.193Z,5.77
2018-03-15T12:06:25.627Z,6.53
2018-03-15T12:08:53.060Z,5.90
2018-03-15T12:11:20.885Z,5.47
2018-03-15T12:13:48.327Z,6.40
2018-03-15T12:16:15.751Z,4.87
2018-03-15T12:18:43.193Z,9.33
2018-03-15T12:21:10.629Z,6.57
2018-03-15T12:23:38.104Z,7.28
2018-03-15T12:26:05.544Z,6.57
2018-03-15T12:28:33.960Z,5.90
2018-03-15T12:31:01.406Z,5.40
2018-03-15T12:33:29.232Z,5.50
2018-03-15T12:35:56.665Z,6.47
2018-03-15T12:38:24.108Z,5.27
2018-03-15T12:40:51.538Z,6.97
2018-03-15T12:43:19.872Z,6.15
2018-03-15T12:45:47.353Z,6.03
2018-03-15T12:48:14.737Z,6.43
2018-03-15T12:50:42.167Z,5.87
2018-03-15T12:53:09.609Z,5.60
2018-03-15T12:55:37.042Z,6.28
2018-03-15T12:58:04.486Z,7.45
2018-03-15T13:00:31.924Z,9.65
2018-03-15T13:02:59.364Z,5.45
2018-03-15T13:05:27.185Z,6.50
2018-03-15T13:07:54.629Z,7.23
2018-03-15T13:10:22.064Z,7.60
2018-03-15T13:12:49.513Z,5.57
2018-03-15T13:15:16.940Z,5.70
2018-03-15T13:17:44.390Z,4.60
2018-03-15T13:20:11.837Z,3.70
2018-03-15T13:22:39.282Z,6.37
2018-03-15T13:25:06.721Z,6.22
2018-03-15T13:27:34.168Z,5.07
2018-03-15T13:30:01.601Z,3.27
2018-03-15T13:32:29.607Z,6.60
2018-03-15T13:34:57.034Z,4.83
2018-03-15T13:37:24.460Z,5.37
2018-03-15T13:39:52.320Z,6.72
2018-03-15T13:42:19.765Z,5.65
2018-03-15T13:44:47.199Z,6.90
2018-03-15T13:47:14.670Z,4.72
2018-03-15T13:49:42.146Z,4.73
2018-03-15T13:52:09.532Z,4.30
2018-03-15T13:54:36.967Z,4.20
2018-03-15T13:57:04.794Z,5.50
2018-03-15T13:59:32.224Z,4.87
2018-03-15T14:01:59.661Z,6.07
2018-03-15T14:04:27.521Z,7.47
2018-03-15T14:06:55.026Z,4.97
2018-03-15T14:09:22.444Z,6.55
2018-03-15T14:11:49.878Z,6.97
2018-03-15T14:14:17.329Z,5.80
2018-03-15T14:16:44.809Z,4.20
2018-03-15T14:19:12.653Z,5.90
2018-03-15T14:21:40.176Z,5.80
2018-03-15T14:24:07.601Z,3.97
2018-03-15T14:26:35.031Z,4.95
2018-03-15T14:29:02.545Z,5.17
2018-03-15T14:31:29.968Z,3.60
2018-03-15T14:33:57.411Z,6.87
2018-03-15T14:36:24.840Z,5.97
2018-03-15T14:38:52.268Z,4.87
2018-03-15T14:41:19.697Z,7.97
2018-03-15T14:43:47.132Z,3.80
2018-03-15T14:46:14.577Z,4.50
2018-03-15T14:48:42.016Z,10.17
2018-03-15T14:51:09.448Z,7.70
2018-03-15T14:53:36.872Z,7.40
2018-03-15T14:56:04.314Z,4.18
2018-03-15T14:58:32.156Z,7.40
2018-03-15T15:00:59.596Z,5.65
2018-03-15T15:03:27.045Z,6.37
2018-03-15T15:05:54.478Z,5.13
2018-03-15T15:08:21.917Z,5.43
2018-03-15T15:10:49.374Z,4.80
2018-03-15T15:13:17.208Z,6.17
2018-03-15T15:15:44.648Z,6.70
2018-03-15T15:18:12.145Z,4.70
2018-03-15T15:20:39.505Z,3.50
2018-03-15T15:23:06.957Z,5.20
2018-03-15T15:25:34.791Z,4.87
2018-03-15T15:28:02.225Z,6.35
2018-03-15T15:30:29.680Z,3.70
2018-03-15T15:32:57.121Z,6.05
2018-03-15T15:35:24.553Z,4.30
2018-03-15T15:37:52.386Z,5.25
2018-03-15T15:40:19.853Z,5.40
2018-03-15T15:42:47.266Z,5.60
2018-03-15T15:45:14.692Z,4.70
2018-03-15T15:47:42.125Z,3.83
2018-03-15T15:50:09.553Z,4.78
2018-03-15T15:52:36.992Z,4.53
2018-03-15T15:55:04.425Z,6.03
2018-03-15T15:57:31.856Z,8.63
2018-03-15T15:59:59.288Z,3.87
2018-03-15T16:02:26.718Z,5.33
2018-03-15T16:04:54.166Z,5.57
2018-03-15T16:07:21.593Z,4.62
2018-03-15T16:09:49.428Z,3.90
2018-03-15T16:12:16.881Z,4.70
2018-03-15T16:14:44.332Z,3.53
2018-03-15T16:17:11.768Z,4.10
2018-03-15T16:19:39.256Z,5.20
2018-03-15T16:22:06.810Z,4.17
2018-03-15T16:24:34.253Z,4.35
2018-03-15T16:27:01.739Z,4.00
2018-03-15T16:29:29.123Z,4.78
2018-03-15T16:31:56.549Z,4.07
2018-03-15T16:34:23.984Z,6.60
2018-03-15T16:36:51.408Z,6.30
2018-03-15T16:39:18.868Z,3.55
2018-03-15T16:41:46.297Z,8.82
2018-03-15T16:44:14.141Z,4.90
2018-03-15T16:46:41.570Z,4.70
2018-03-15T16:49:09.021Z,5.53
2018-03-15T16:51:36.460Z,6.35
2018-03-15T16:54:03.916Z,5.75
2018-03-15T16:56:31.349Z,8.75
2018-03-15T16:58:58.792Z,5.82
2018-03-15T17:01:26.629Z,4.90
2018-03-15T17:03:54.069Z,4.90
2018-03-15T17:06:21.497Z,6.35
2018-03-15T17:08:48.942Z,5.30
2018-03-15T17:11:16.383Z,3.90
2018-03-15T17:13:43.817Z,7.28
2018-03-15T17:16:11.248Z,3.28
2018-03-15T17:18:38.688Z,4.68
2018-03-15T17:21:06.114Z,4.82
2018-03-15T17:23:33.552Z,7.35
2018-03-15T17:26:01.071Z,3.78
2018-03-15T17:28:28.528Z,4.32
2018-03-15T17:30:55.944Z,5.90
2018-03-15T17:33:23.373Z,6.13
2018-03-15T17:35:50.804Z,3.87
2018-03-15T17:38:18.245Z,3.90
2018-03-15T17:40:45.672Z,5.20
2018-03-15T17:43:13.500Z,4.77
2018-03-15T17:45:40.933Z,3.80
2018-03-15T17:48:08.381Z,3.40
2018-03-15T17:50:35.826Z,5.97
2018-03-15T17:53:03.257Z,5.90
2018-03-15T17:55:30.806Z,4.80
2018-03-15T17:57:58.224Z,4.37
2018-03-15T18:00:25.662Z,4.30
2018-03-15T18:02:53.112Z,6.18
2018-03-15T18:05:20.548Z,5.37
2018-03-15T18:07:47.982Z,4.60
2018-03-15T18:10:15.412Z,4.63
2018-03-15T18:12:42.840Z,5.70
2018-03-15T18:15:11.153Z,5.55
2018-03-15T18:17:38.584Z,10.57
2018-03-15T18:20:06.012Z,5.60
2018-03-15T18:22:33.455Z,4.70
2018-03-15T18:25:01.289Z,6.15
2018-03-15T18:27:28.786Z,4.25
2018-03-15T18:29:56.154Z,5.77
2018-03-15T18:32:23.588Z,5.10
2018-03-15T18:34:51.020Z,4.10
2018-03-15T18:37:19.408Z,8.35
2018-03-15T18:39:46.849Z,6.18
2018-03-15T18:42:14.301Z,8.95
2018-03-15T18:44:41.736Z,5.50
2018-03-15T18:47:09.167Z,6.95
2018-03-15T18:49:36.612Z,6.15
2018-03-15T18:52:04.441Z,7.55
2018-03-15T18:54:31.885Z,9.90
2018-03-15T18:56:59.307Z,7.45
2018-03-15T18:59:26.771Z,7.12
2018-03-15T19:01:54.209Z,6.22
2018-03-15T19:04:21.656Z,8.25
2018-03-15T19:06:49.480Z,8.48
2018-03-15T19:09:16.913Z,8.00
2018-03-15T19:11:44.381Z,6.47
2018-03-15T19:14:11.813Z,5.85
2018-03-15T19:16:39.244Z,6.18
2018-03-15T19:19:06.722Z,8.18
2018-03-15T19:21:34.144Z,6.15
2018-03-15T19:24:01.586Z,7.20
2018-03-15T19:26:29.021Z,11.82
2018-03-15T19:28:56.448Z,7.28
2018-03-15T19:31:23.882Z,5.65
2018-03-15T19:33:51.714Z,5.93
2018-03-15T19:36:19.149Z,9.02
2018-03-15T19:38:46.598Z,6.15
2018-03-15T19:41:14.020Z,5.68
2018-03-15T19:43:41.859Z,8.77
2018-03-15T19:46:09.290Z,6.78
2018-03-15T19:48:36.752Z,11.38
2018-03-15T19:51:04.173Z,9.15
2018-03-15T19:53:31.609Z,9.40
2018-03-15T19:55:59.475Z,6.68
2018-03-15T19:58:26.885Z,12.98
2018-03-15T20:00:54.413Z,7.07
2018-03-15T20:03:22.216Z,10.98
2018-03-15T20:05:49.658Z,11.88
2018-03-15T20:08:17.093Z,15.95
2018-03-15T20:10:44.543Z,12.15
2018-03-15T20:13:11.970Z,9.50
2018-03-15T20:15:45.073Z,8.05
2018-03-15T20:18:12.893Z,9.60
2018-03-15T20:20:40.345Z,8.75
2018-03-15T20:23:13.360Z,9.88
2018-03-15T20:25:40.797Z,8.10
2018-03-15T20:28:14.154Z,6.78
2018-03-15T20:30:41.582Z,9.60
2018-03-15T20:33:14.682Z,13.77
2018-03-15T20:35:42.504Z,9.38
2018-03-15T20:38:10.088Z,11.50
2018-03-15T20:40:43.260Z,9.95
2018-03-15T20:43:10.718Z,13.73
2018-03-15T20:45:43.866Z,10.07
2018-03-15T20:48:16.957Z,7.60
2018-03-15T20:50:46.060Z,8.65
2018-03-15T20:53:13.537Z,7.35
2018-03-15T20:55:40.952Z,8.95
2018-03-15T20:58:08.390Z,10.82
2018-03-15T21:00:36.296Z,7.15
2018-03-15T21:03:03.726Z,10.23
2018-03-15T21:05:31.166Z,10.00
2018-03-15T21:07:58.649Z,6.72
2018-03-15T21:10:26.072Z,9.18
2018-03-15T21:12:53.512Z,9.90
2018-03-15T21:15:20.966Z,10.25
2018-03-15T21:17:48.400Z,9.63
2018-03-15T21:20:16.842Z,9.38
2018-03-15T21:22:44.656Z,9.00
2018-03-15T21:25:12.110Z,9.27
2018-03-15T21:27:39.535Z,9.35
2018-03-15T21:30:06.980Z,8.98
2018-03-15T21:32:34.417Z,9.35
2018-03-15T21:35:01.884Z,10.50
2018-03-15T21:37:29.304Z,8.65
2018-03-15T21:39:56.738Z,8.70
2018-03-15T21:42:24.172Z,9.75
2018-03-15T21:44:51.604Z,9.98
2018-03-15T21:47:19.429Z,12.27
2018-03-15T21:49:46.867Z,10.95
2018-03-15T21:52:14.305Z,12.27
2018-03-15T21:54:42.629Z,9.20
2018-03-15T21:57:10.059Z,10.43
2018-03-15T21:59:37.484Z,9.70
2018-03-15T22:02:04.917Z,8.43
2018-03-15T22:04:32.340Z,8.25
2018-03-15T22:07:00.706Z,8.88
2018-03-15T22:09:28.132Z,9.13
2018-03-15T22:11:55.630Z,11.40
2018-03-15T22:14:23.088Z,11.07
2018-03-15T22:16:51.884Z,7.40
2018-03-15T22:19:26.190Z,8.60
2018-03-15T22:21:53.950Z,9.52
2018-03-15T22:24:21.394Z,13.40
2018-03-15T22:26:49.393Z,9.80
2018-03-15T22:29:16.856Z,9.63
2018-03-15T22:31:44.588Z,9.02
2018-03-15T22:34:12.020Z,9.75
2018-03-15T22:36:39.915Z,8.52
2018-03-15T22:39:07.375Z,8.70
2018-03-15T22:41:35.201Z,10.75
2018-03-15T22:44:03.018Z,10.85
2018-03-15T22:46:30.481Z,9.07
2018-03-15T22:48:57.949Z,10.60
2018-03-15T22:51:25.868Z,8.73
2018-03-15T22:53:53.292Z,9.02
2018-03-15T22:56:21.159Z,12.93
2018-03-15T22:58:48.612Z,10.85
2018-03-15T23:01:16.481Z,9.40
2018-03-15T23:03:45.282Z,11.27
2018-03-15T23:06:13.739Z,9.07
2018-03-15T23:08:41.991Z,9.98
2018-03-15T23:11:09.452Z,9.38
2018-03-15T23:13:36.917Z,10.75
2018-03-15T23:16:04.448Z,7.53
2018-03-15T23:18:32.803Z,9.90
2018-03-15T23:21:00.266Z,9.70
2018-03-15T23:23:27.734Z,12.40
2018-03-15T23:25:55.208Z,10.65
2018-03-15T23:28:22.676Z,9.48
2018-03-15T23:30:50.121Z,9.45
2018-03-15T23:33:17.541Z,8.52
2018-03-15T23:35:44.970Z,9.07
2018-03-15T23:38:12.792Z,9.13
2018-03-15T23:40:40.227Z,8.95
2018-03-15T23:43:07.680Z,9.05
2018-03-15T23:45:35.167Z,11.65
2018-03-15T23:48:02.676Z,14.38
2018-03-15T23:50:30.088Z,10.70
2018-03-15T23:52:58.331Z,11.15
2018-03-15T23:55:25.882Z,10.52
2018-03-15T23:57:53.480Z,12.25
